Time,TemperatureF,DewpointF,PressureIn,WindDirection,WindDirectionDegrees,WindSpeedMPH,WindSpeedGustMPH,Humidity,HourlyPrecipIn,Conditions,Clouds,dailyrainin,SoftwareType,DateUTC
2013-02-15 00:05:00,-4.6,-11.0,30.76,West,281,0.0,1.0,75,0.00,,,0.00,weatherlink.com 1.10,2013-02-15 07:05:00,
2013-02-15 00:20:00,-4.7,-10.0,30.77,NNW,338,1.0,2.0,77,0.00,,,0.00,weatherlink.com 1.10,2013-02-15 07:20:00,
2013-02-15 00:35:00,-4.5,-9.0,30.77,NNW,327,0.0,2.0,79,0.00,,,0.00,weatherlink.com 1.10,2013-02-15 07:35:00,
2013-02-15 00:50:00,-5.1,-10.0,30.77,NW,305,0.0,3.0,78,0.00,,,0.00,weatherlink.com 1.10,2013-02-15 07:50:00,
2013-02-15 01:05:00,-5.9,-11.0,30.77,WNW,301,0.0,2.0,79,0.00,,,0.00,weatherlink.com 1.10,2013-02-15 08:05:00,
2013-02-15 01:20:00,-6.6,-12.0,30.78,NW,305,1.0,3.0,77,0.00,,,0.00,weatherlink.com 1.10,2013-02-15 08:20:00,
2013-02-15 01:36:00,-6.2,-11.0,30.78,NE,38,1.0,1.0,81,0.00,,,0.00,weatherlink.com 1.10,2013-02-15 08:36:00,
2013-02-15 01:51:00,-8.4,-14.0,30.79,NW,309,0.0,3.0,77,0.00,,,0.00,weatherlink.com 1.10,2013-02-15 08:51:00,
2013-02-15 02:06:00,-6.9,-11.0,30.78,NNW,328,1.0,2.0,81,0.00,,,0.00,weatherlink.com 1.10,2013-02-15 09:06:00,
2013-02-15 02:21:00,-6.3,-11.0,30.79,NNW,334,0.0,1.0,79,0.00,,,0.00,weatherlink.com 1.10,2013-02-15 09:21:00,
2013-02-15 02:36:00,-6.9,-11.0,30.79,NNW,338,0.0,2.0,81,0.00,,,0.00,weatherlink.com 1.10,2013-02-15 09:36:00,
2013-02-15 02:51:00,-8.6,-13.0,30.79,NNW,336,1.0,3.0,80,0.00,,,0.00,weatherlink.com 1.10,2013-02-15 09:51:00,
2013-02-15 03:06:00,-8.9,-14.0,30.79,NNW,327,1.0,4.0,79,0.00,,,0.00,weatherlink.com 1.10,2013-02-15 10:06:00,
2013-02-15 03:21:00,-9.6,-14.0,30.78,WNW,301,0.0,1.0,81,0.00,,,0.00,weatherlink.com 1.10,2013-02-15 10:21:00,
2013-02-15 03:36:00,-8.0,-13.0,30.78,WNW,289,1.0,2.0,80,0.00,,,0.00,weatherlink.com 1.10,2013-02-15 10:36:00,
2013-02-15 03:51:00,-9.0,-14.0,30.79,West,278,0.0,1.0,80,0.00,,,0.00,weatherlink.com 1.10,2013-02-15 10:51:00,
2013-02-15 04:06:00,-10.3,-14.0,30.79,WNW,282,0.0,1.0,82,0.00,,,0.00,weatherlink.com 1.10,2013-02-15 11:06:00,
2013-02-15 04:21:00,-9.5,-14.0,30.79,NNW,338,0.0,1.0,82,0.00,,,0.00,weatherlink.com 1.10,2013-02-15 11:21:00,
2013-02-15 04:36:00,-10.9,-15.0,30.79,West,278,0.0,0.0,80,0.00,,,0.00,weatherlink.com 1.10,2013-02-15 11:36:00,
2013-02-15 04:52:00,-11.8,-16.0,30.79,North,1,0.0,1.0,82,0.00,,,0.00,weatherlink.com 1.10,2013-02-15 11:52:00,
2013-02-15 05:07:00,-11.9,-16.0,30.80,NW,321,2.0,3.0,81,0.00,,,0.00,weatherlink.com 1.10,2013-02-15 12:07:00,
2013-02-15 05:22:00,-11.1,-15.0,30.81,NW,317,0.0,1.0,83,0.00,,,0.00,weatherlink.com 1.10,2013-02-15 12:22:00,
2013-02-15 05:37:00,-11.8,-17.0,30.82,WNW,285,0.0,1.0,79,0.00,,,0.00,weatherlink.com 1.10,2013-02-15 12:37:00,
2013-02-15 05:52:00,-11.9,-16.0,30.82,NW,322,0.0,1.0,82,0.00,,,0.00,weatherlink.com 1.10,2013-02-15 12:52:00,
2013-02-15 06:07:00,-11.9,-16.0,30.83,WNW,287,0.0,1.0,83,0.00,,,0.00,weatherlink.com 1.10,2013-02-15 13:07:00,
2013-02-15 06:22:00,-10.9,-15.0,30.84,WNW,290,2.0,4.0,82,0.00,,,0.00,weatherlink.com 1.10,2013-02-15 13:22:00,
2013-02-15 06:37:00,-10.9,-15.0,30.85,North,356,0.0,1.0,81,0.00,,,0.00,weatherlink.com 1.10,2013-02-15 13:37:00,
2013-02-15 06:52:00,-12.1,-16.0,30.85,NNE,16,0.0,1.0,83,0.00,,,0.00,weatherlink.com 1.10,2013-02-15 13:52:00,
2013-02-15 07:07:00,-12.2,-16.0,30.86,NW,307,1.0,2.0,83,0.00,,,0.00,weatherlink.com 1.10,2013-02-15 14:07:00,
2013-02-15 07:22:00,-12.1,-16.0,30.87,WNW,283,0.0,1.0,81,0.00,,,0.00,weatherlink.com 1.10,2013-02-15 14:22:00,
2013-02-15 07:37:00,-9.3,-13.0,30.88,North,6,0.0,1.0,83,0.00,,,0.00,weatherlink.com 1.10,2013-02-15 14:37:00,
2013-02-15 07:52:00,-7.8,-12.0,30.88,NNW,328,1.0,1.0,80,0.00,,,0.00,weatherlink.com 1.10,2013-02-15 14:52:00,
2013-02-15 08:07:00,-5.2,-10.0,30.87,WNW,297,3.0,-999.0,80,-99.99,,,0.00,weatherlink.com 1.10,2013-02-15 15:07:00,
2013-02-15 08:23:00,-4.4,-10.0,30.88,West,281,1.0,3.0,76,0.00,,,0.00,weatherlink.com 1.10,2013-02-15 15:23:00,
2013-02-15 08:38:00,-3.1,-8.0,30.87,NW,311,1.0,3.0,78,0.00,,,0.00,weatherlink.com 1.10,2013-02-15 15:38:00,
2013-02-15 08:53:00,0.1,-8.0,30.87,SE,139,1.0,3.0,69,0.00,,,0.00,weatherlink.com 1.10,2013-02-15 15:53:00,
2013-02-15 09:08:00,1.5,-7.0,30.87,ESE,122,0.0,0.0,68,0.00,,,0.00,weatherlink.com 1.10,2013-02-15 16:08:00,
2013-02-15 09:23:00,4.1,-6.0,30.87,ESE,116,0.0,0.0,62,0.00,,,0.00,weatherlink.com 1.10,2013-02-15 16:23:00,
2013-02-15 09:38:00,8.4,-3.0,30.86,NNE,27,0.0,0.0,59,0.00,,,0.00,weatherlink.com 1.10,2013-02-15 16:38:00,
2013-02-15 09:53:00,5.9,-5.0,30.85,NW,316,4.0,7.0,61,0.00,,,0.00,weatherlink.com 1.10,2013-02-15 16:53:00,
2013-02-15 10:08:00,8.0,-2.0,30.86,NW,316,2.0,3.0,63,0.00,,,0.00,weatherlink.com 1.10,2013-02-15 17:08:00,
2013-02-15 10:23:00,12.2,-1.0,30.85,SSE,158,3.0,3.0,56,0.00,,,0.00,weatherlink.com 1.10,2013-02-15 17:23:00,
2013-02-15 10:38:00,11.2,0.0,30.85,ESE,103,4.0,5.0,60,0.00,,,0.00,weatherlink.com 1.10,2013-02-15 17:38:00,
2013-02-15 10:53:00,17.0,5.0,30.84,NNW,337,5.0,9.0,59,0.00,,,0.00,weatherlink.com 1.10,2013-02-15 17:53:00,
2013-02-15 11:08:00,23.4,6.0,30.83,NW,315,14.0,17.0,48,0.00,,,0.00,weatherlink.com 1.10,2013-02-15 18:08:00,
2013-02-15 11:23:00,24.3,5.0,30.82,NW,316,12.0,16.0,44,0.00,,,0.00,weatherlink.com 1.10,2013-02-15 18:23:00,
2013-02-15 11:39:00,24.7,5.0,30.81,NW,316,14.0,17.0,43,0.00,,,0.00,weatherlink.com 1.10,2013-02-15 18:39:00,
2013-02-15 11:54:00,25.0,5.0,30.80,NW,315,15.0,22.0,43,0.00,,,0.00,weatherlink.com 1.10,2013-02-15 18:54:00,
2013-02-15 12:09:00,25.4,5.0,30.80,NW,312,12.0,24.0,41,0.00,,,0.00,weatherlink.com 1.10,2013-02-15 19:09:00,
2013-02-15 12:24:00,25.9,3.0,30.79,NW,319,14.0,23.0,37,0.00,,,0.00,weatherlink.com 1.10,2013-02-15 19:24:00,
2013-02-15 12:39:00,26.3,4.0,30.79,NW,325,12.0,20.0,39,0.00,,,0.00,weatherlink.com 1.10,2013-02-15 19:39:00,
2013-02-15 12:54:00,26.2,5.0,30.77,NW,315,18.0,21.0,40,0.00,,,0.00,weatherlink.com 1.10,2013-02-15 19:54:00,
2013-02-15 13:09:00,26.7,4.0,30.77,NW,315,10.0,19.0,38,0.00,,,0.00,weatherlink.com 1.10,2013-02-15 20:09:00,
2013-02-15 13:24:00,26.9,3.0,30.77,NW,315,15.0,20.0,35,0.00,,,0.00,weatherlink.com 1.10,2013-02-15 20:24:00,
2013-02-15 13:39:00,26.8,5.0,30.77,NW,316,10.0,16.0,40,0.00,,,0.00,weatherlink.com 1.10,2013-02-15 20:39:00,
2013-02-15 13:54:00,27.1,3.0,30.77,NNW,330,11.0,24.0,36,0.00,,,0.00,weatherlink.com 1.10,2013-02-15 20:54:00,
2013-02-15 14:09:00,27.0,4.0,30.77,North,5,15.0,19.0,38,0.00,,,0.00,weatherlink.com 1.10,2013-02-15 21:09:00,
2013-02-15 14:24:00,26.9,4.0,30.76,NW,324,14.0,20.0,38,0.00,,,0.00,weatherlink.com 1.10,2013-02-15 21:24:00,
2013-02-15 14:39:00,27.1,4.0,30.77,NW,316,15.0,19.0,37,0.00,,,0.00,weatherlink.com 1.10,2013-02-15 21:39:00,
2013-02-15 14:55:00,27.5,4.0,30.77,NW,318,6.0,16.0,37,0.00,,,0.00,weatherlink.com 1.10,2013-02-15 21:55:00,
2013-02-15 15:10:00,27.5,4.0,30.77,NW,319,8.0,15.0,37,0.00,,,0.00,weatherlink.com 1.10,2013-02-15 22:10:00,
2013-02-15 15:25:00,27.4,5.0,30.78,NW,316,9.0,13.0,38,0.00,,,0.00,weatherlink.com 1.10,2013-02-15 22:25:00,
2013-02-15 15:40:00,27.3,3.0,30.78,NNW,336,10.0,16.0,36,0.00,,,0.00,weatherlink.com 1.10,2013-02-15 22:40:00,
2013-02-15 15:55:00,27.0,3.0,30.79,NW,325,9.0,17.0,36,0.00,,,0.00,weatherlink.com 1.10,2013-02-15 22:55:00,
2013-02-15 16:10:00,26.9,3.0,30.79,NNW,338,10.0,18.0,36,0.00,,,0.00,weatherlink.com 1.10,2013-02-15 23:10:00,
2013-02-15 16:25:00,26.1,3.0,30.79,WNW,302,9.0,14.0,37,0.00,,,0.00,weatherlink.com 1.10,2013-02-15 23:25:00,
2013-02-15 16:40:00,25.8,3.0,30.80,NW,304,11.0,13.0,37,0.00,,,0.00,weatherlink.com 1.10,2013-02-15 23:40:00,
2013-02-15 16:55:00,24.8,3.0,30.80,NW,304,9.0,13.0,39,0.00,,,0.00,weatherlink.com 1.10,2013-02-15 23:55:00,
2013-02-15 17:10:00,24.8,2.0,30.81,NW,322,12.0,18.0,37,0.00,,,0.00,weatherlink.com 1.10,2013-02-16 00:10:00,
2013-02-15 17:25:00,22.4,1.0,30.82,NW,316,8.0,10.0,40,0.00,,,0.00,weatherlink.com 1.10,2013-02-16 00:25:00,
2013-02-15 17:40:00,21.6,2.0,30.83,NNW,345,5.0,11.0,42,0.00,,,0.00,weatherlink.com 1.10,2013-02-16 00:40:00,
2013-02-15 17:55:00,20.1,0.0,30.84,WNW,285,1.0,8.0,42,0.00,,,0.00,weatherlink.com 1.10,2013-02-16 00:55:00,
2013-02-15 18:11:00,17.4,0.0,30.85,WNW,284,2.0,5.0,47,0.00,,,0.00,weatherlink.com 1.10,2013-02-16 01:11:00,
2013-02-15 18:26:00,16.4,1.0,30.86,WNW,291,2.0,4.0,50,0.00,,,0.00,weatherlink.com 1.10,2013-02-16 01:26:00,
2013-02-15 18:41:00,15.1,0.0,30.86,WNW,288,1.0,4.0,51,0.00,,,0.00,weatherlink.com 1.10,2013-02-16 01:41:00,
2013-02-15 18:56:00,14.0,-1.0,30.87,WNW,297,0.0,1.0,51,0.00,,,0.00,weatherlink.com 1.10,2013-02-16 01:56:00,
2013-02-15 19:11:00,11.4,-2.0,30.88,East,91,0.0,2.0,56,0.00,,,0.00,weatherlink.com 1.10,2013-02-16 02:11:00,
2013-02-15 19:26:00,9.7,-3.0,30.89,SE,128,0.0,0.0,57,0.00,,,0.00,weatherlink.com 1.10,2013-02-16 02:26:00,
2013-02-15 19:41:00,7.8,-4.0,30.90,SE,146,0.0,0.0,60,0.00,,,0.00,weatherlink.com 1.10,2013-02-16 02:41:00,
2013-02-15 19:56:00,8.4,-3.0,30.91,NNE,31,1.0,5.0,60,0.00,,,0.00,weatherlink.com 1.10,2013-02-16 02:56:00,
2013-02-15 20:11:00,8.3,-3.0,30.92,East,93,0.0,2.0,61,0.00,,,0.00,weatherlink.com 1.10,2013-02-16 03:11:00,
2013-02-15 20:26:00,10.6,-2.0,30.94,WNW,288,0.0,6.0,57,0.00,,,0.00,weatherlink.com 1.10,2013-02-16 03:26:00,
2013-02-15 20:41:00,8.5,-3.0,30.95,SSE,155,0.0,1.0,59,0.00,,,0.00,weatherlink.com 1.10,2013-02-16 03:41:00,
2013-02-15 20:56:00,10.6,-1.0,30.95,WSW,243,0.0,2.0,60,0.00,,,0.00,weatherlink.com 1.10,2013-02-16 03:56:00,
2013-02-15 21:11:00,8.2,-4.0,30.95,NNW,334,0.0,2.0,58,0.00,,,0.00,weatherlink.com 1.10,2013-02-16 04:11:00,
2013-02-15 21:27:00,5.5,-5.0,30.95,NW,322,2.0,5.0,63,0.00,,,0.00,weatherlink.com 1.10,2013-02-16 04:27:00,
2013-02-15 21:42:00,4.8,-4.0,30.95,NNW,333,4.0,5.0,66,0.00,,,0.00,weatherlink.com 1.10,2013-02-16 04:42:00,
2013-02-15 21:57:00,5.8,-4.0,30.95,North,356,1.0,3.0,63,0.00,,,0.00,weatherlink.com 1.10,2013-02-16 04:57:00,
2013-02-15 22:12:00,5.8,-4.0,30.96,NNE,32,0.0,1.0,64,0.00,,,0.00,weatherlink.com 1.10,2013-02-16 05:12:00,
2013-02-15 22:27:00,3.7,-5.0,30.96,North,1,1.0,2.0,66,0.00,,,0.00,weatherlink.com 1.10,2013-02-16 05:27:00,
2013-02-15 22:42:00,2.9,-6.0,30.97,NNW,337,2.0,4.0,68,0.00,,,0.00,weatherlink.com 1.10,2013-02-16 05:42:00,
2013-02-15 22:57:00,1.3,-7.0,30.97,NNW,340,0.0,3.0,67,0.00,,,0.00,weatherlink.com 1.10,2013-02-16 05:57:00,
2013-02-15 23:12:00,1.4,-6.0,30.97,NW,325,1.0,4.0,70,0.00,,,0.00,weatherlink.com 1.10,2013-02-16 06:12:00,
2013-02-15 23:27:00,-0.3,-9.0,30.97,NW,312,3.0,4.0,68,0.00,,,0.00,weatherlink.com 1.10,2013-02-16 06:27:00,
2013-02-15 23:42:00,-0.3,-6.0,30.97,WNW,284,0.0,2.0,76,0.00,,,0.00,weatherlink.com 1.10,2013-02-16 06:42:00,
2013-02-15 23:57:00,-0.2,-7.0,30.98,WNW,283,1.0,2.0,72,0.00,,,0.00,weatherlink.com 1.10,2013-02-16 06:57:00,